IGO5039 VOHS-VABB
Flight info
| Callsign | IGO5039 |
|---|---|
| Flight time | 1h 6m |
| Altitude | 36000 |
| Route | TAMIV7 APUSU W18 OPAKA EMRAK2A |
| Aircraft | A20N/M-SDE2E3FGHIRWXY/LB1 |
Departure
| Time | 2026-04-29 13:38 |
|---|---|
| Airport | Rajiv Gandhi International Airport (VOHS) |
Arrival
| Time | 2026-04-29 14:45 |
|---|---|
| Airport | Chhatrapati Shivaji Maharaj International Airport (VABB) |
| Time | Latitude | Longitude | Altitude | Speed | Heading |
|---|---|---|---|---|---|
| 2026-04-29 13:12 | 17.23412 | 78.43168 | 1984 ft | 0 kts | 7° |
| 2026-04-29 13:25 | 17.23411 | 78.43168 | 1956 ft | 1 kts | 7° |
| 2026-04-29 13:26 | 17.23392 | 78.43166 | 1985 ft | 3 kts | 4° |
| 2026-04-29 13:26 | 17.23370 | 78.43164 | 1983 ft | 3 kts | 8° |
| 2026-04-29 13:26 | 17.23349 | 78.43159 | 1984 ft | 3 kts | 24° |
| 2026-04-29 13:26 | 17.23333 | 78.43148 | 1984 ft | 3 kts | 74° |
| 2026-04-29 13:27 | 17.23332 | 78.43141 | 1984 ft | 1 kts | 90° |
| 2026-04-29 13:30 | 17.23331 | 78.43150 | 1983 ft | 2 kts | 90° |
| 2026-04-29 13:30 | 17.23331 | 78.43176 | 1984 ft | 5 kts | 90° |
| 2026-04-29 13:30 | 17.23331 | 78.43217 | 1984 ft | 7 kts | 90° |
| 2026-04-29 13:30 | 17.23331 | 78.43273 | 1985 ft | 8 kts | 90° |
| 2026-04-29 13:31 | 17.23333 | 78.43341 | 1986 ft | 10 kts | 88° |
| 2026-04-29 13:31 | 17.23335 | 78.43420 | 1987 ft | 12 kts | 88° |
| 2026-04-29 13:31 | 17.23337 | 78.43511 | 1988 ft | 13 kts | 90° |
| 2026-04-29 13:31 | 17.23337 | 78.43612 | 1989 ft | 14 kts | 90° |
| 2026-04-29 13:32 | 17.23295 | 78.43694 | 1990 ft | 15 kts | 168° |
| 2026-04-29 13:32 | 17.23186 | 78.43706 | 1990 ft | 17 kts | 178° |
| 2026-04-29 13:32 | 17.23095 | 78.43755 | 1991 ft | 17 kts | 94° |
| 2026-04-29 13:32 | 17.23095 | 78.43878 | 1993 ft | 17 kts | 89° |
| 2026-04-29 13:33 | 17.23098 | 78.44005 | 1996 ft | 17 kts | 89° |
| 2026-04-29 13:33 | 17.23100 | 78.44133 | 1998 ft | 18 kts | 89° |
| 2026-04-29 13:33 | 17.23102 | 78.44268 | 1999 ft | 19 kts | 89° |
| 2026-04-29 13:33 | 17.23054 | 78.44318 | 1999 ft | 7 kts | 198° |
| 2026-04-29 13:34 | 17.23009 | 78.44308 | 1998 ft | 0 kts | 183° |
| 2026-04-29 13:36 | 17.22993 | 78.44308 | 1998 ft | 4 kts | 183° |
| 2026-04-29 13:36 | 17.22950 | 78.44305 | 1998 ft | 8 kts | 183° |
| 2026-04-29 13:37 | 17.22899 | 78.44280 | 1997 ft | 10 kts | 251° |
| 2026-04-29 13:37 | 17.22897 | 78.44261 | 1997 ft | 3 kts | 266° |
| 2026-04-29 13:37 | 17.22884 | 78.44060 | 1995 ft | 62 kts | 266° |
| 2026-04-29 13:37 | 17.22876 | 78.43379 | 1988 ft | 124 kts | 271° |
| 2026-04-29 13:38 | 17.22869 | 78.42294 | 1986 ft | 173 kts | 269° |
| 2026-04-29 13:38 | 17.22797 | 78.40974 | 2406 ft | 185 kts | 263° |
| 2026-04-29 13:38 | 17.22693 | 78.39593 | 2841 ft | 194 kts | 263° |
| 2026-04-29 13:38 | 17.22674 | 78.38166 | 3336 ft | 200 kts | 270° |
| 2026-04-29 13:39 | 17.22830 | 78.36698 | 3801 ft | 206 kts | 276° |
| 2026-04-29 13:39 | 17.23115 | 78.35209 | 4096 ft | 214 kts | 279° |
| 2026-04-29 13:39 | 17.23504 | 78.33641 | 4243 ft | 231 kts | 282° |
| 2026-04-29 13:39 | 17.23938 | 78.31936 | 4345 ft | 247 kts | 281° |
| 2026-04-29 13:40 | 17.24260 | 78.30201 | 5011 ft | 239 kts | 277° |
| 2026-04-29 13:40 | 17.24428 | 78.28466 | 5476 ft | 242 kts | 272° |
| 2026-04-29 13:40 | 17.24483 | 78.26678 | 5881 ft | 246 kts | 273° |
| 2026-04-29 13:40 | 17.24642 | 78.24888 | 6319 ft | 249 kts | 278° |
| 2026-04-29 13:41 | 17.24970 | 78.23075 | 6605 ft | 257 kts | 284° |
| 2026-04-29 13:41 | 17.25416 | 78.21306 | 7225 ft | 248 kts | 287° |
| 2026-04-29 13:41 | 17.25923 | 78.19562 | 7569 ft | 255 kts | 289° |
| 2026-04-29 13:41 | 17.26481 | 78.17846 | 8289 ft | 239 kts | 290° |
| 2026-04-29 13:42 | 17.27043 | 78.16255 | 9028 ft | 229 kts | 292° |
| 2026-04-29 13:42 | 17.27640 | 78.14695 | 9520 ft | 237 kts | 294° |
| 2026-04-29 13:42 | 17.28295 | 78.13056 | 9844 ft | 258 kts | 293° |
| 2026-04-29 13:42 | 17.28950 | 78.11184 | 10135 ft | 283 kts | 290° |
| 2026-04-29 13:43 | 17.29575 | 78.09174 | 10382 ft | 306 kts | 289° |
| 2026-04-29 13:43 | 17.30224 | 78.06960 | 10604 ft | 329 kts | 288° |
| 2026-04-29 13:43 | 17.30892 | 78.04637 | 11164 ft | 337 kts | 288° |
| 2026-04-29 13:43 | 17.31568 | 78.02277 | 11929 ft | 340 kts | 288° |
| 2026-04-29 13:44 | 17.32253 | 77.99895 | 12671 ft | 343 kts | 288° |
| 2026-04-29 13:44 | 17.32947 | 77.97489 | 13418 ft | 347 kts | 288° |
| 2026-04-29 13:44 | 17.33651 | 77.95059 | 14109 ft | 350 kts | 288° |
| 2026-04-29 13:44 | 17.34361 | 77.92604 | 14760 ft | 355 kts | 288° |
| 2026-04-29 13:45 | 17.35081 | 77.90118 | 15371 ft | 359 kts | 288° |
| 2026-04-29 13:45 | 17.35810 | 77.87600 | 15986 ft | 364 kts | 288° |
| 2026-04-29 13:45 | 17.36539 | 77.85079 | 16576 ft | 368 kts | 288° |
| 2026-04-29 13:45 | 17.37285 | 77.82498 | 17179 ft | 371 kts | 288° |
| 2026-04-29 13:46 | 17.38031 | 77.79913 | 17926 ft | 371 kts | 288° |
| 2026-04-29 13:46 | 17.38783 | 77.77309 | 18423 ft | 376 kts | 288° |
| 2026-04-29 13:46 | 17.39542 | 77.74676 | 18952 ft | 379 kts | 288° |
| 2026-04-29 13:46 | 17.40310 | 77.72017 | 19460 ft | 383 kts | 288° |
| 2026-04-29 13:47 | 17.41081 | 77.69341 | 19989 ft | 386 kts | 288° |
| 2026-04-29 13:47 | 17.41860 | 77.66636 | 20502 ft | 389 kts | 288° |
| 2026-04-29 13:47 | 17.42646 | 77.63908 | 21010 ft | 392 kts | 288° |
| 2026-04-29 13:47 | 17.43433 | 77.61160 | 21518 ft | 396 kts | 287° |
| 2026-04-29 13:48 | 17.44026 | 77.58323 | 22021 ft | 400 kts | 279° |
| 2026-04-29 13:48 | 17.44391 | 77.55419 | 22512 ft | 404 kts | 278° |
| 2026-04-29 13:48 | 17.44761 | 77.52490 | 23028 ft | 407 kts | 278° |
| 2026-04-29 13:48 | 17.45140 | 77.49532 | 23496 ft | 411 kts | 278° |
| 2026-04-29 13:49 | 17.45520 | 77.46566 | 23981 ft | 412 kts | 278° |
| 2026-04-29 13:49 | 17.45901 | 77.43594 | 24478 ft | 412 kts | 278° |
| 2026-04-29 13:49 | 17.46282 | 77.40612 | 24942 ft | 413 kts | 278° |
| 2026-04-29 13:49 | 17.46664 | 77.37619 | 25389 ft | 415 kts | 278° |
| 2026-04-29 13:50 | 17.47041 | 77.34659 | 25831 ft | 416 kts | 278° |
| 2026-04-29 13:50 | 17.47423 | 77.31652 | 26261 ft | 417 kts | 278° |
| 2026-04-29 13:50 | 17.47807 | 77.28634 | 26689 ft | 418 kts | 278° |
| 2026-04-29 13:50 | 17.48190 | 77.25610 | 27097 ft | 420 kts | 278° |
| 2026-04-29 13:51 | 17.48575 | 77.22573 | 27487 ft | 421 kts | 278° |
| 2026-04-29 13:51 | 17.48961 | 77.19520 | 27857 ft | 423 kts | 278° |
| 2026-04-29 13:51 | 17.49348 | 77.16459 | 28252 ft | 424 kts | 278° |
| 2026-04-29 13:51 | 17.49735 | 77.13391 | 28632 ft | 426 kts | 278° |
| 2026-04-29 13:52 | 17.49992 | 77.11356 | 28857 ft | 427 kts | 278° |
| 2026-04-29 13:52 | 17.50510 | 77.07237 | 29323 ft | 429 kts | 278° |
| 2026-04-29 13:52 | 17.50776 | 77.05129 | 29561 ft | 430 kts | 278° |
| 2026-04-29 13:52 | 17.51163 | 77.02047 | 29890 ft | 431 kts | 278° |
| 2026-04-29 13:53 | 17.51555 | 76.98919 | 30140 ft | 434 kts | 278° |
| 2026-04-29 13:53 | 17.51948 | 76.95785 | 30362 ft | 437 kts | 278° |
| 2026-04-29 13:53 | 17.52344 | 76.92623 | 30605 ft | 440 kts | 278° |
| 2026-04-29 13:53 | 17.52742 | 76.89434 | 30850 ft | 442 kts | 278° |
| 2026-04-29 13:54 | 17.53142 | 76.86230 | 31145 ft | 444 kts | 278° |
| 2026-04-29 13:54 | 17.53543 | 76.83011 | 31392 ft | 446 kts | 278° |
| 2026-04-29 13:54 | 17.53944 | 76.79787 | 31694 ft | 446 kts | 278° |
| 2026-04-29 13:54 | 17.54345 | 76.76563 | 31987 ft | 446 kts | 278° |
| 2026-04-29 13:55 | 17.54958 | 76.73380 | 32249 ft | 446 kts | 288° |
| 2026-04-29 13:55 | 17.56130 | 76.70365 | 32509 ft | 446 kts | 298° |
| 2026-04-29 13:55 | 17.57816 | 76.67645 | 32778 ft | 447 kts | 308° |
| 2026-04-29 13:55 | 17.59967 | 76.65295 | 33030 ft | 448 kts | 319° |
| 2026-04-29 13:56 | 17.62508 | 76.63399 | 33287 ft | 450 kts | 329° |
| 2026-04-29 13:56 | 17.65250 | 76.61893 | 33560 ft | 450 kts | 332° |
| 2026-04-29 13:56 | 17.68037 | 76.60384 | 33806 ft | 450 kts | 332° |
| 2026-04-29 13:56 | 17.70821 | 76.58872 | 34046 ft | 450 kts | 332° |
| 2026-04-29 13:57 | 17.73596 | 76.57362 | 34317 ft | 448 kts | 332° |
| 2026-04-29 13:57 | 17.76353 | 76.55861 | 34607 ft | 446 kts | 332° |
| 2026-04-29 13:57 | 17.79102 | 76.54363 | 34875 ft | 444 kts | 332° |
| 2026-04-29 13:57 | 17.81838 | 76.52871 | 35137 ft | 442 kts | 332° |
| 2026-04-29 13:58 | 17.84572 | 76.51379 | 35407 ft | 441 kts | 332° |
| 2026-04-29 13:58 | 17.87291 | 76.49896 | 35658 ft | 439 kts | 332° |
| 2026-04-29 13:58 | 17.89998 | 76.48418 | 35912 ft | 438 kts | 332° |
| 2026-04-29 13:58 | 17.92665 | 76.46962 | 36177 ft | 437 kts | 332° |
| 2026-04-29 13:59 | 17.95356 | 76.45493 | 36446 ft | 435 kts | 332° |
| 2026-04-29 13:59 | 17.98039 | 76.44027 | 36827 ft | 431 kts | 332° |
| 2026-04-29 13:59 | 18.00687 | 76.42580 | 37202 ft | 427 kts | 333° |
| 2026-04-29 13:59 | 18.03331 | 76.41167 | 37458 ft | 426 kts | 333° |
| 2026-04-29 14:00 | 18.05983 | 76.39776 | 37692 ft | 425 kts | 333° |
| 2026-04-29 14:00 | 18.08627 | 76.38393 | 37939 ft | 424 kts | 333° |
| 2026-04-29 14:00 | 18.11264 | 76.37011 | 38169 ft | 423 kts | 333° |
| 2026-04-29 14:00 | 18.13891 | 76.35629 | 38394 ft | 422 kts | 333° |
| 2026-04-29 14:01 | 18.16515 | 76.34246 | 38590 ft | 421 kts | 333° |
| 2026-04-29 14:01 | 18.19129 | 76.32867 | 38716 ft | 421 kts | 333° |
| 2026-04-29 14:01 | 18.21751 | 76.31483 | 38853 ft | 421 kts | 333° |
| 2026-04-29 14:01 | 18.24370 | 76.30099 | 38987 ft | 421 kts | 333° |
| 2026-04-29 14:02 | 18.26950 | 76.28736 | 39115 ft | 420 kts | 333° |
| 2026-04-29 14:02 | 18.29572 | 76.27350 | 39242 ft | 420 kts | 333° |
| 2026-04-29 14:02 | 18.34800 | 76.24585 | 39317 ft | 420 kts | 333° |
| 2026-04-29 14:03 | 18.40014 | 76.21826 | 39318 ft | 419 kts | 333° |
| 2026-04-29 14:03 | 18.45231 | 76.19064 | 39323 ft | 419 kts | 333° |
| 2026-04-29 14:04 | 18.50432 | 76.16308 | 39320 ft | 419 kts | 333° |
| 2026-04-29 14:04 | 18.55640 | 76.13547 | 39315 ft | 419 kts | 333° |
| 2026-04-29 14:05 | 18.60875 | 76.10769 | 39327 ft | 419 kts | 333° |
| 2026-04-29 14:05 | 18.66043 | 76.08025 | 39320 ft | 416 kts | 333° |
| 2026-04-29 14:06 | 18.71212 | 76.05279 | 39323 ft | 417 kts | 333° |
| 2026-04-29 14:06 | 18.76393 | 76.02524 | 39318 ft | 417 kts | 333° |
| 2026-04-29 14:07 | 18.81579 | 75.99765 | 39319 ft | 417 kts | 333° |
| 2026-04-29 14:07 | 18.86736 | 75.97019 | 39307 ft | 417 kts | 333° |
| 2026-04-29 14:08 | 18.91891 | 75.94273 | 39310 ft | 417 kts | 333° |
| 2026-04-29 14:08 | 18.97039 | 75.91529 | 39319 ft | 412 kts | 333° |
| 2026-04-29 14:09 | 19.02166 | 75.88793 | 39307 ft | 414 kts | 333° |
| 2026-04-29 14:09 | 19.07300 | 75.86052 | 39306 ft | 413 kts | 333° |
| 2026-04-29 14:10 | 19.12436 | 75.83308 | 39301 ft | 413 kts | 333° |
| 2026-04-29 14:10 | 19.17574 | 75.80561 | 39300 ft | 413 kts | 333° |
| 2026-04-29 14:11 | 19.22674 | 75.77832 | 39300 ft | 413 kts | 333° |
| 2026-04-29 14:11 | 19.27817 | 75.75079 | 39296 ft | 414 kts | 333° |
| 2026-04-29 14:12 | 19.32956 | 75.72325 | 39301 ft | 414 kts | 333° |
| 2026-04-29 14:12 | 19.38095 | 75.69570 | 39296 ft | 414 kts | 333° |
| 2026-04-29 14:13 | 19.43074 | 75.66498 | 39294 ft | 415 kts | 322° |
| 2026-04-29 14:13 | 19.47116 | 75.62141 | 39300 ft | 417 kts | 308° |
| 2026-04-29 14:14 | 19.49893 | 75.56720 | 39300 ft | 423 kts | 293° |
| 2026-04-29 14:14 | 19.51149 | 75.50591 | 39294 ft | 430 kts | 280° |
| 2026-04-29 14:15 | 19.51777 | 75.44288 | 39303 ft | 430 kts | 280° |
| 2026-04-29 14:15 | 19.52416 | 75.38012 | 39296 ft | 431 kts | 280° |
| 2026-04-29 14:16 | 19.53053 | 75.31686 | 39314 ft | 431 kts | 280° |
| 2026-04-29 14:16 | 19.53684 | 75.25382 | 39307 ft | 429 kts | 280° |
| 2026-04-29 14:17 | 19.54313 | 75.19076 | 39194 ft | 430 kts | 280° |
| 2026-04-29 14:17 | 19.54627 | 75.15915 | 38964 ft | 429 kts | 280° |
| 2026-04-29 14:17 | 19.54938 | 75.12777 | 38740 ft | 428 kts | 280° |
| 2026-04-29 14:18 | 19.55249 | 75.09642 | 38516 ft | 427 kts | 280° |
| 2026-04-29 14:18 | 19.55559 | 75.06508 | 38261 ft | 428 kts | 280° |
| 2026-04-29 14:18 | 19.55867 | 75.03399 | 38002 ft | 430 kts | 280° |
| 2026-04-29 14:18 | 19.56179 | 75.00242 | 37743 ft | 431 kts | 280° |
| 2026-04-29 14:19 | 19.56491 | 74.97074 | 37424 ft | 432 kts | 280° |
| 2026-04-29 14:19 | 19.56805 | 74.93889 | 36725 ft | 437 kts | 280° |
| 2026-04-29 14:19 | 19.57123 | 74.90659 | 35887 ft | 442 kts | 280° |
| 2026-04-29 14:19 | 19.57441 | 74.87408 | 35096 ft | 445 kts | 280° |
| 2026-04-29 14:20 | 19.57761 | 74.84133 | 34315 ft | 447 kts | 280° |
| 2026-04-29 14:20 | 19.58081 | 74.80846 | 33477 ft | 451 kts | 280° |
| 2026-04-29 14:20 | 19.58405 | 74.77525 | 32689 ft | 451 kts | 279° |
| 2026-04-29 14:20 | 19.58728 | 74.74212 | 31815 ft | 453 kts | 279° |
| 2026-04-29 14:21 | 19.59052 | 74.70888 | 30967 ft | 454 kts | 278° |
| 2026-04-29 14:21 | 19.59375 | 74.67569 | 30372 ft | 450 kts | 278° |
| 2026-04-29 14:21 | 19.59692 | 74.64293 | 29788 ft | 444 kts | 277° |
| 2026-04-29 14:21 | 19.60004 | 74.61056 | 29170 ft | 438 kts | 277° |
| 2026-04-29 14:22 | 19.60221 | 74.57887 | 28574 ft | 433 kts | 273° |
| 2026-04-29 14:22 | 19.60099 | 74.54716 | 27984 ft | 429 kts | 266° |
| 2026-04-29 14:22 | 19.59633 | 74.51605 | 27398 ft | 426 kts | 260° |
| 2026-04-29 14:22 | 19.58862 | 74.48583 | 26832 ft | 423 kts | 256° |
| 2026-04-29 14:23 | 19.58045 | 74.45610 | 26257 ft | 418 kts | 257° |
| 2026-04-29 14:23 | 19.57243 | 74.42652 | 25659 ft | 415 kts | 257° |
| 2026-04-29 14:23 | 19.56451 | 74.39728 | 25101 ft | 412 kts | 257° |
| 2026-04-29 14:23 | 19.55662 | 74.36816 | 24558 ft | 408 kts | 257° |
| 2026-04-29 14:24 | 19.54877 | 74.33926 | 24017 ft | 406 kts | 256° |
| 2026-04-29 14:24 | 19.54104 | 74.31087 | 23449 ft | 404 kts | 256° |
| 2026-04-29 14:24 | 19.53317 | 74.28196 | 22812 ft | 401 kts | 256° |
| 2026-04-29 14:24 | 19.52556 | 74.25410 | 22298 ft | 396 kts | 256° |
| 2026-04-29 14:25 | 19.51794 | 74.22622 | 21741 ft | 392 kts | 256° |
| 2026-04-29 14:25 | 19.51040 | 74.19862 | 21206 ft | 388 kts | 256° |
| 2026-04-29 14:25 | 19.50291 | 74.17122 | 20657 ft | 385 kts | 256° |
| 2026-04-29 14:25 | 19.49549 | 74.14407 | 20109 ft | 383 kts | 256° |
| 2026-04-29 14:26 | 19.48809 | 74.11703 | 19534 ft | 381 kts | 256° |
| 2026-04-29 14:26 | 19.48072 | 74.09011 | 18984 ft | 379 kts | 256° |
| 2026-04-29 14:26 | 19.47341 | 74.06339 | 18454 ft | 377 kts | 256° |
| 2026-04-29 14:26 | 19.46610 | 74.03676 | 17854 ft | 375 kts | 256° |
| 2026-04-29 14:27 | 19.45889 | 74.01044 | 17350 ft | 370 kts | 256° |
| 2026-04-29 14:27 | 19.45175 | 73.98444 | 16809 ft | 366 kts | 256° |
| 2026-04-29 14:27 | 19.44473 | 73.95890 | 16311 ft | 363 kts | 256° |
| 2026-04-29 14:28 | 19.43113 | 73.90946 | 16022 ft | 336 kts | 256° |
| 2026-04-29 14:28 | 19.42468 | 73.88614 | 15868 ft | 324 kts | 256° |
| 2026-04-29 14:28 | 19.41682 | 73.86410 | 15654 ft | 317 kts | 247° |
| 2026-04-29 14:28 | 19.40647 | 73.84367 | 15397 ft | 314 kts | 244° |
| 2026-04-29 14:29 | 19.39598 | 73.82340 | 15054 ft | 313 kts | 243° |
| 2026-04-29 14:29 | 19.38552 | 73.80305 | 14701 ft | 314 kts | 244° |
| 2026-04-29 14:29 | 19.37528 | 73.78307 | 14358 ft | 313 kts | 243° |
| 2026-04-29 14:29 | 19.36486 | 73.76284 | 14012 ft | 312 kts | 243° |
| 2026-04-29 14:30 | 19.35449 | 73.74268 | 13668 ft | 311 kts | 243° |
| 2026-04-29 14:30 | 19.34422 | 73.72274 | 13295 ft | 307 kts | 242° |
| 2026-04-29 14:30 | 19.33404 | 73.70299 | 12953 ft | 303 kts | 242° |
| 2026-04-29 14:30 | 19.32400 | 73.68354 | 12625 ft | 299 kts | 242° |
| 2026-04-29 14:31 | 19.31404 | 73.66422 | 12279 ft | 296 kts | 242° |
| 2026-04-29 14:31 | 19.30413 | 73.64501 | 11947 ft | 297 kts | 242° |
| 2026-04-29 14:31 | 19.29424 | 73.62585 | 11610 ft | 294 kts | 242° |
| 2026-04-29 14:31 | 19.28459 | 73.60717 | 11290 ft | 290 kts | 242° |
| 2026-04-29 14:32 | 19.27497 | 73.58857 | 10967 ft | 287 kts | 242° |
| 2026-04-29 14:32 | 19.26550 | 73.57025 | 10842 ft | 278 kts | 242° |
| 2026-04-29 14:32 | 19.25638 | 73.55262 | 10708 ft | 269 kts | 242° |
| 2026-04-29 14:32 | 19.24764 | 73.53573 | 10400 ft | 266 kts | 242° |
| 2026-04-29 14:33 | 19.23882 | 73.51868 | 10091 ft | 263 kts | 242° |
| 2026-04-29 14:33 | 19.23006 | 73.50173 | 9773 ft | 261 kts | 242° |
| 2026-04-29 14:33 | 19.22136 | 73.48494 | 9418 ft | 259 kts | 242° |
| 2026-04-29 14:33 | 19.21355 | 73.46777 | 9010 ft | 259 kts | 251° |
| 2026-04-29 14:34 | 19.20805 | 73.44972 | 8636 ft | 257 kts | 253° |
| 2026-04-29 14:34 | 19.20262 | 73.43171 | 8287 ft | 256 kts | 253° |
| 2026-04-29 14:34 | 19.19720 | 73.41392 | 8000 ft | 252 kts | 254° |
| 2026-04-29 14:34 | 19.19183 | 73.39640 | 7718 ft | 249 kts | 253° |
| 2026-04-29 14:35 | 19.18495 | 73.37946 | 7437 ft | 252 kts | 245° |
| 2026-04-29 14:35 | 19.17676 | 73.36310 | 7145 ft | 252 kts | 245° |
| 2026-04-29 14:35 | 19.16847 | 73.34678 | 6866 ft | 251 kts | 245° |
| 2026-04-29 14:35 | 19.16017 | 73.33065 | 6590 ft | 248 kts | 245° |
| 2026-04-29 14:36 | 19.15191 | 73.31474 | 6322 ft | 246 kts | 245° |
| 2026-04-29 14:36 | 19.14365 | 73.29906 | 6029 ft | 241 kts | 244° |
| 2026-04-29 14:36 | 19.13564 | 73.28359 | 5736 ft | 239 kts | 245° |
| 2026-04-29 14:36 | 19.12770 | 73.26805 | 5440 ft | 241 kts | 245° |
| 2026-04-29 14:37 | 19.11983 | 73.25255 | 5162 ft | 239 kts | 244° |
| 2026-04-29 14:37 | 19.11470 | 73.24227 | 4984 ft | 238 kts | 245° |
| 2026-04-29 14:37 | 19.10704 | 73.22682 | 4691 ft | 237 kts | 245° |
| 2026-04-29 14:37 | 19.09951 | 73.21109 | 4399 ft | 240 kts | 248° |
| 2026-04-29 14:38 | 19.09396 | 73.18894 | 4086 ft | 230 kts | 265° |
| 2026-04-29 14:38 | 19.09295 | 73.17258 | 4027 ft | 217 kts | 270° |
| 2026-04-29 14:38 | 19.09278 | 73.16194 | 4031 ft | 224 kts | 271° |
| 2026-04-29 14:38 | 19.09257 | 73.14555 | 4030 ft | 221 kts | 270° |
| 2026-04-29 14:39 | 19.09233 | 73.12928 | 4029 ft | 221 kts | 271° |
| 2026-04-29 14:39 | 19.09211 | 73.11312 | 3901 ft | 218 kts | 271° |
| 2026-04-29 14:39 | 19.09189 | 73.09749 | 3862 ft | 200 kts | 270° |
| 2026-04-29 14:39 | 19.09169 | 73.08284 | 3651 ft | 200 kts | 271° |
| 2026-04-29 14:40 | 19.09149 | 73.06841 | 3398 ft | 192 kts | 270° |
| 2026-04-29 14:40 | 19.09130 | 73.05462 | 3166 ft | 184 kts | 270° |
| 2026-04-29 14:40 | 19.09108 | 73.04182 | 2933 ft | 167 kts | 270° |
| 2026-04-29 14:40 | 19.09097 | 73.02926 | 2727 ft | 172 kts | 270° |
| 2026-04-29 14:41 | 19.09077 | 73.01710 | 2508 ft | 157 kts | 270° |
| 2026-04-29 14:41 | 19.09063 | 73.00607 | 2311 ft | 143 kts | 270° |
| 2026-04-29 14:41 | 19.09049 | 72.99558 | 2132 ft | 144 kts | 269° |
| 2026-04-29 14:41 | 19.09040 | 72.98514 | 1940 ft | 140 kts | 270° |
| 2026-04-29 14:42 | 19.09035 | 72.97493 | 1783 ft | 141 kts | 268° |
| 2026-04-29 14:42 | 19.09025 | 72.96445 | 1605 ft | 142 kts | 269° |
| 2026-04-29 14:42 | 19.09054 | 72.95437 | 1685 ft | 124 kts | 271° |
| 2026-04-29 14:42 | 19.09089 | 72.94422 | 1330 ft | 144 kts | 265° |
| 2026-04-29 14:43 | 19.08950 | 72.93348 | 887 ft | 148 kts | 260° |
| 2026-04-29 14:43 | 19.08916 | 72.92317 | 807 ft | 137 kts | 274° |
| 2026-04-29 14:43 | 19.08934 | 72.91314 | 694 ft | 137 kts | 267° |
| 2026-04-29 14:43 | 19.08927 | 72.90271 | 579 ft | 143 kts | 270° |
| 2026-04-29 14:44 | 19.08918 | 72.89249 | 350 ft | 134 kts | 268° |
| 2026-04-29 14:44 | 19.08922 | 72.88243 | 237 ft | 141 kts | 269° |
| 2026-04-29 14:44 | 19.08893 | 72.87259 | 93 ft | 137 kts | 267° |
| 2026-04-29 14:44 | 19.08870 | 72.86282 | 29 ft | 112 kts | 268° |
| 2026-04-29 14:45 | 19.08855 | 72.85787 | 27 ft | 21 kts | 269° |
| 2026-04-29 14:45 | 19.08852 | 72.85581 | 26 ft | 27 kts | 282° |
| 2026-04-29 14:45 | 19.08862 | 72.85446 | 27 ft | 16 kts | 277° |
| 2026-04-29 14:45 | 19.08902 | 72.85332 | 27 ft | 14 kts | 296° |
| 2026-04-29 14:46 | 19.08905 | 72.85327 | 27 ft | 0 kts | 296° |